sensor_id;sensor_type;location;lat;lon;timestamp;pressure;altitude;pressure_sealevel;temperature;humidity
61740;BME280;47645;45.288;12.038;2023-03-03T00:03:54;1016.4645664930638;;;6.4517578125;85.74766201590887
61740;BME280;47645;45.288;12.038;2023-03-03T00:13:55;1016.4746225228815;;;6.395703125;85.61957574279191
61740;BME280;47645;45.288;12.038;2023-03-03T00:24:10;1016.3916365747956;;;6.181640625;87.81050225819783
61740;BME280;47645;45.288;12.038;2023-03-03T00:33:56;1016.2551831153618;;;6.1357421875;87.41614485346449
61740;BME280;47645;45.288;12.038;2023-03-03T00:43:56;1016.2553493824803;;;6.1765625;87.12555103734672
61740;BME280;47645;45.288;12.038;2023-03-03T00:53:57;1016.1690537679966;;;6.1;87.50572548849281
61740;BME280;47645;45.288;12.038;2023-03-03T01:03:56;1016.0989491252908;;;6.1765625;87.02201022067216
61740;BME280;47645;45.288;12.038;2023-03-03T01:13:57;1016.0480923744537;;;5.9318359375;87.86891386050291
61740;BME280;47645;45.288;12.038;2023-03-03T01:23:57;1015.9329249066681;;;5.6056640625;89.51975698748166
61740;BME280;47645;45.288;12.038;2023-03-03T01:33:57;1015.8203554666403;;;5.6107421875;89.60910453996388
61740;BME280;47645;45.288;12.038;2023-03-03T01:43:59;1015.7715119911462;;;5.442578125;90.4188893074973
61740;BME280;47645;45.288;12.038;2023-03-03T01:54:00;1015.6956821587078;;;5.4375;90.64716245533573
61740;BME280;47645;45.288;12.038;2023-03-03T02:03:59;1015.6131742515738;;;5.2337890625;91.348278565367
61740;BME280;47645;45.288;12.038;2023-03-03T02:13:59;1015.5097625036502;;;5.228515625;91.16323682928656
61740;BME280;47645;45.288;12.038;2023-03-03T02:24:04;1015.4941703704812;;;5.228515625;91.11344927014682
61740;BME280;47645;45.288;12.038;2023-03-03T02:34:00;1015.371827777962;;;5.10625;91.57921921367996
61740;BME280;47645;45.288;12.038;2023-03-03T02:44:01;1015.2837379962741;;;5.1419921875;91.2555068344422
61740;BME280;47645;45.288;12.038;2023-03-03T02:54:00;1015.1890193943161;;;5.1673828125;90.64287945770903
61740;BME280;47645;45.288;12.038;2023-03-03T03:04:00;1015.2112544481589;;;5.0654296875;90.9456370977152
61740;BME280;47645;45.288;12.038;2023-03-03T03:14:00;1015.0907635401607;;;4.790234375;92.41069642188909
61740;BME280;47645;45.288;12.038;2023-03-03T03:24:01;1015.0178543874545;;;4.749609375;92.87372375472587
61740;BME280;47645;45.288;12.038;2023-03-03T03:34:01;1014.9134350870672;;;4.632421875;93.44238471664772
61740;BME280;47645;45.288;12.038;2023-03-03T03:44:01;1014.8740120432047;;;4.5966796875;93.70807932459317
61740;BME280;47645;45.288;12.038;2023-03-03T03:54:02;1014.8792857119302;;;4.7546875;92.49948628679486
61740;BME280;47645;45.288;12.038;2023-03-03T04:04:03;1014.9887494122581;;;4.6884765625;92.49639588176032
61740;BME280;47645;45.288;12.038;2023-03-03T04:14:02;1014.877233076618;;;4.632421875;92.79576419258713
61740;BME280;47645;45.288;12.038;2023-03-03T04:24:03;1014.8571821745405;;;4.8107421875;91.36667547417653
61740;BME280;47645;45.288;12.038;2023-03-03T04:34:03;1014.8904524622444;;;4.44375;93.2998526496813
61740;BME280;47645;45.288;12.038;2023-03-03T04:44:03;1014.920808931434;;;4.5916015625;91.91633628134599
61740;BME280;47645;45.288;12.038;2023-03-03T04:54:04;1014.9390847369837;;;4.535546875;92.50944055167373
61740;BME280;47645;45.288;12.038;2023-03-03T05:04:04;1014.9135895420852;;;4.555859375;92.17541255657473
61740;BME280;47645;45.288;12.038;2023-03-03T05:14:04;1014.9120267637041;;;5.009375;88.2736610210858
61740;BME280;47645;45.288;12.038;2023-03-03T05:24:05;1014.9896957994002;;;5.1521484375;85.97982559199025
61740;BME280;47645;45.288;12.038;2023-03-03T05:34:05;1014.9506215136075;;;5.1369140625;85.3491254005331
61740;BME280;47645;45.288;12.038;2023-03-03T05:44:05;1015.0184681129751;;;5.0654296875;85.54233158675775
61740;BME280;47645;45.288;12.038;2023-03-03T05:54:06;1015.1327777839684;;;4.7546875;86.43077921191407
61740;BME280;47645;45.288;12.038;2023-03-03T06:04:06;1015.2020912068075;;;4.897265625;85.43596680778295
61740;BME280;47645;45.288;12.038;2023-03-03T06:14:06;1015.1999652731339;;;4.4693359375;89.11572594539402
61740;BME280;47645;45.288;12.038;2023-03-03T06:24:07;1015.3160202829293;;;4.6068359375;88.27132048720657
61740;BME280;47645;45.288;12.038;2023-03-03T06:34:07;1015.4378315213335;;;4.5203125;90.3546364675603
61740;BME280;47645;45.288;12.038;2023-03-03T06:44:07;1015.481536009847;;;4.3927734375;90.52422544186999
61740;BME280;47645;45.288;12.038;2023-03-03T06:54:10;1015.6289172728171;;;4.45390625;95.51637975247978
61740;BME280;47645;45.288;12.038;2023-03-03T07:04:14;1015.6416756244007;;;4.540625;96.84090942037362
61740;BME280;47645;45.288;12.038;2023-03-03T07:14:14;1015.6828453693416;;;4.790234375;95.68120034294243
61740;BME280;47645;45.288;12.038;2023-03-03T07:24:24;1015.7631966829681;;;4.9482421875;98.30136161179185
61740;BME280;47645;45.288;12.038;2023-03-03T07:34:16;1015.8304321937836;;;5.2744140625;97.48924548688073
61740;BME280;47645;45.288;12.038;2023-03-03T07:44:16;1015.8237721103662;;;5.9064453125;94.78378208927991
61740;BME280;47645;45.288;12.038;2023-03-03T07:54:21;1015.8329210185749;;;6.18671875;94.41299445221303
61740;BME280;47645;45.288;12.038;2023-03-03T08:04:15;1015.9227789970059;;;6.625;92.91589908573239
61740;BME280;47645;45.288;12.038;2023-03-03T08:14:13;1016.0078813195895;;;7.0939453125;89.9471750517591
61740;BME280;47645;45.288;12.038;2023-03-03T08:24:11;1015.9847252191518;;;7.593359375;88.04592182401699
61740;BME280;47645;45.288;12.038;2023-03-03T08:34:11;1015.9864648431706;;;8.15390625;82.7120460276719
61740;BME280;47645;45.288;12.038;2023-03-03T08:44:12;1015.9628137111852;;;8.4546875;82.27694778046252
61740;BME280;47645;45.288;12.038;2023-03-03T08:54:13;1015.9415442746442;;;8.79609375;75.33999618215906
61740;BME280;47645;45.288;12.038;2023-03-03T09:04:13;1016.0332268441952;;;9.316015625;73.5068787054647
61740;BME280;47645;45.288;12.038;2023-03-03T09:14:15;1016.0647061816137;;;9.6013671875;72.07083031770158
61740;BME280;47645;45.288;12.038;2023-03-03T09:24:20;1016.0322579699279;;;10.406640625;69.65406686315767
61740;BME280;47645;45.288;12.038;2023-03-03T09:34:19;1016.0447145661459;;;10.70234375;64.73888170704697
61740;BME280;47645;45.288;12.038;2023-03-03T09:45:27;1016.0672273604454;;;11.3138671875;62.28587077644831
61740;BME280;47645;45.288;12.038;2023-03-03T09:54:25;1016.0638252250706;;;12.09375;60.0558118077302
61740;BME280;47645;45.288;12.038;2023-03-03T10:04:37;1016.0691315582776;;;12.761328125;58.56834841844907
61740;BME280;47645;45.288;12.038;2023-03-03T10:14:36;1016.1219142440424;;;13.3677734375;56.2682877762139
61740;BME280;47645;45.288;12.038;2023-03-03T10:24:26;1016.1591981474454;;;14.591015625;53.581507214896824
61740;BME280;47645;45.288;12.038;2023-03-03T10:34:28;1016.2109328735849;;;14.5248046875;51.11234012532517
61740;BME280;47645;45.288;12.038;2023-03-03T10:44:30;1016.2258481612272;;;15.1875;51.74112254698515
61740;BME280;47645;45.288;12.038;2023-03-03T10:54:31;1016.2107539224603;;;15.1466796875;49.6138501435962
61740;BME280;47645;45.288;12.038;2023-03-03T11:04:27;1016.2551268593852;;;14.7388671875;50.59848475697975
61740;BME280;47645;45.288;12.038;2023-03-03T11:14:25;1016.1771779374487;;;15.0244140625;48.779187563627616
61740;BME280;47645;45.288;12.038;2023-03-03T11:24:30;1016.0903100515508;;;15.1720703125;49.67658187392597
61740;BME280;47645;45.288;12.038;2023-03-03T11:34:37;1015.9938884173008;;;15.0140625;48.80147511610661
61740;BME280;47645;45.288;12.038;2023-03-03T11:44:28;1015.954167684748;;;15.1314453125;48.04007732779056
61740;BME280;47645;45.288;12.038;2023-03-03T11:54:27;1015.7792158210189;;;15.330078125;47.262548790699896
61740;BME280;47645;45.288;12.038;2023-03-03T12:04:29;1015.727670530566;;;15.7888671875;48.82445171068041
61740;BME280;47645;45.288;12.038;2023-03-03T12:14:41;1015.6914699256838;;;16.26796875;47.8648294493479
61740;BME280;47645;45.288;12.038;2023-03-03T12:24:33;1015.6984129986575;;;15.9978515625;45.986965808133164
61740;BME280;47645;45.288;12.038;2023-03-03T12:34:34;1015.6796631318665;;;16.05390625;46.57278142843827
61740;BME280;47645;45.288;12.038;2023-03-03T12:44:33;1015.6170039814818;;;16.0130859375;48.23399200569151
61740;BME280;47645;45.288;12.038;2023-03-03T12:54:56;1015.5626772164096;;;16.894921875;46.00668162280536
61740;BME280;47645;45.288;12.038;2023-03-03T13:04:34;1015.5542714449065;;;17.3841796875;50.64488776444657
61740;BME280;47645;45.288;12.038;2023-03-03T13:14:36;1015.4590043075489;;;17.955078125;51.09162429933479
61740;BME280;47645;45.288;12.038;2023-03-03T13:24:36;1015.49582761427;;;18.36796875;48.50408941919971
61740;BME280;47645;45.288;12.038;2023-03-03T13:34:38;1015.4845779288054;;;17.399609375;48.87662966129097
61740;BME280;47645;45.288;12.038;2023-03-03T13:44:36;1015.443648539553;;;18.4138671875;47.70087000690983
61740;BME280;47645;45.288;12.038;2023-03-03T13:54:47;1015.4178302783314;;;18.1947265625;49.85665973293116
61740;BME280;47645;45.288;12.038;2023-03-03T14:04:44;1015.4390933007636;;;16.9765625;47.64548913577938
61740;BME280;47645;45.288;12.038;2023-03-03T14:14:44;1015.3199028954798;;;18.3169921875;52.91784416160965
61740;BME280;47645;45.288;12.038;2023-03-03T14:24:58;1015.2317198469982;;;18.56171875;51.9172975783993
61740;BME280;47645;45.288;12.038;2023-03-03T14:34:39;1015.1714194656457;;;18.3322265625;52.18423230522618
61740;BME280;47645;45.288;12.038;2023-03-03T14:44:51;1015.2342377882638;;;17.526953125;53.337642754706415
61740;BME280;47645;45.288;12.038;2023-03-03T14:54:42;1015.147036094719;;;17.3892578125;52.201908397548856
61740;BME280;47645;45.288;12.038;2023-03-03T15:04:41;1015.1955805668085;;;17.2873046875;56.826503951497706
61740;BME280;47645;45.288;12.038;2023-03-03T15:14:44;1015.1321308240873;;;17.0275390625;59.30962179549475
61740;BME280;47645;45.288;12.038;2023-03-03T15:24:44;1015.0097183393207;;;15.6970703125;52.41254395112875
61740;BME280;47645;45.288;12.038;2023-03-03T15:34:45;1015.035294252796;;;16.1150390625;60.70998780642201
61740;BME280;47645;45.288;12.038;2023-03-03T15:44:54;1015.1748669569184;;;15.8041015625;62.35421203954413
61740;BME280;47645;45.288;12.038;2023-03-03T15:54:50;1015.1833148462439;;;15.4525390625;64.12842514603327
61740;BME280;47645;45.288;12.038;2023-03-03T16:04:52;1015.1702273838939;;;15.1669921875;65.48642257713341
61740;BME280;47645;45.288;12.038;2023-03-03T16:14:57;1015.222840491304;;;14.7490234375;66.49149929649424
61740;BME280;47645;45.288;12.038;2023-03-03T16:24:57;1015.244285052739;;;14.34140625;68.942642827763
61740;BME280;47645;45.288;12.038;2023-03-03T16:34:54;1015.3687884829432;;;13.6787109375;63.942769079764766
61740;BME280;47645;45.288;12.038;2023-03-03T16:44:56;1015.3702506844816;;;12.6951171875;66.42303756140534
61740;BME280;47645;45.288;12.038;2023-03-03T16:54:54;1015.5217313677491;;;12.537109375;72.22746077965348
61740;BME280;47645;45.288;12.038;2023-03-03T17:04:53;1015.5696472925744;;;12.868359375;73.0527666654215
61740;BME280;47645;45.288;12.038;2023-03-03T17:15:01;1015.7778921138105;;;11.9560546875;71.04499671085365
61740;BME280;47645;45.288;12.038;2023-03-03T17:25:03;1015.8598621963897;;;11.1251953125;71.00939067717049
61740;BME280;47645;45.288;12.038;2023-03-03T17:35:07;1015.8581920494438;;;11.5482421875;76.41815562476825
61740;BME280;47645;45.288;12.038;2023-03-03T17:44:59;1016.0094268962424;;;10.9671875;72.92352317782907
61740;BME280;47645;45.288;12.038;2023-03-03T17:55:04;1016.0672562183555;;;10.7888671875;79.54552113172498
61740;BME280;47645;45.288;12.038;2023-03-03T18:05:09;1016.2318536112942;;;11.4515625;78.23977658437673
61740;BME280;47645;45.288;12.038;2023-03-03T18:15:04;1016.390682256591;;;10.7328125;79.61743013141461
61740;BME280;47645;45.288;12.038;2023-03-03T18:24:59;1016.456609078385;;;10.2435546875;78.27867845048128
61740;BME280;47645;45.288;12.038;2023-03-03T18:35:19;1016.6125257925268;;;10.065234375;82.45731067345098
61740;BME280;47645;45.288;12.038;2023-03-03T18:44:55;1016.6186316753265;;;9.7134765625;79.81374720549142
61740;BME280;47645;45.288;12.038;2023-03-03T18:55:02;1016.6268601129732;;;9.33125;80.00979593143948
61740;BME280;47645;45.288;12.038;2023-03-03T19:05:06;1016.638426411948;;;9.20390625;78.80308782626409
61740;BME280;47645;45.288;12.038;2023-03-03T19:14:56;1016.6502702489897;;;9.12734375;79.51899540372237
61740;BME280;47645;45.288;12.038;2023-03-03T19:25:02;1016.6449979258501;;;9.0712890625;79.254198406456
61740;BME280;47645;45.288;12.038;2023-03-03T19:35:07;1016.8330485452518;;;8.9796875;78.56578593544434
61740;BME280;47645;45.288;12.038;2023-03-03T19:45:18;1016.9109540749948;;;8.9796875;79.04086620059722
61740;BME280;47645;45.288;12.038;2023-03-03T19:55:10;1017.0730903382308;;;8.898046875;79.7024829096923
61740;BME280;47645;45.288;12.038;2023-03-03T20:05:07;1017.2011188895943;;;8.7552734375;80.60078132120354
61740;BME280;47645;45.288;12.038;2023-03-03T20:15:06;1017.2923508474464;;;8.5158203125;81.93900657277563
61740;BME280;47645;45.288;12.038;2023-03-03T20:25:09;1017.373919735157;;;8.6482421875;81.9866445499619
61740;BME280;47645;45.288;12.038;2023-03-03T20:35:10;1017.4562004707326;;;8.6076171875;82.29159818316411
61740;BME280;47645;45.288;12.038;2023-03-03T20:45:12;1017.5363311841687;;;8.4291015625;84.31339310046577
61740;BME280;47645;45.288;12.038;2023-03-03T20:55:10;1017.4522698804712;;;8.332421875;83.67452962548793
61740;BME280;47645;45.288;12.038;2023-03-03T21:05:12;1017.5823331492194;;;8.25078125;85.48998109143913
61740;BME280;47645;45.288;12.038;2023-03-03T21:15:05;1017.6899349787799;;;8.3578125;83.73183773190352
61740;BME280;47645;45.288;12.038;2023-03-03T21:25:03;1017.7900787840314;;;8.1080078125;84.86781754658335
61740;BME280;47645;45.288;12.038;2023-03-03T21:35:04;1017.7807370152474;;;8.00625;84.87434844969688
61740;BME280;47645;45.288;12.038;2023-03-03T21:45:09;1017.7800483140572;;;7.720703125;86.13029605867517
61740;BME280;47645;45.288;12.038;2023-03-03T21:50:07;1017.7717302530989;;;7.7615234375;86.11342641882011
61740;BME280;47645;45.288;12.038;2023-03-03T22:00:09;1017.7479567577727;;;7.613671875;86.61328282655026
61740;BME280;47645;45.288;12.038;2023-03-03T22:10:09;1017.7672843678212;;;7.58828125;86.76987615464951
61740;BME280;47645;45.288;12.038;2023-03-03T22:20:09;1017.8711751966731;;;7.506640625;87.58632822166838
61740;BME280;47645;45.288;12.038;2023-03-03T22:30:10;1017.9612380448889;;;7.3333984375;89.42774423048418
61740;BME280;47645;45.288;12.038;2023-03-03T22:40:08;1017.9834970557199;;;7.2365234375;89.7638206273079
61740;BME280;47645;45.288;12.038;2023-03-03T22:50:10;1017.9441932686664;;;7.0734375;90.42389913423686
61740;BME280;47645;45.288;12.038;2023-03-03T23:00:10;1017.9957563060535;;;6.9001953125;90.33142235070814
61740;BME280;47645;45.288;12.038;2023-03-03T23:10:09;1017.9570449875195;;;6.9767578125;89.74283604755463
61740;BME280;47645;45.288;12.038;2023-03-03T23:20:11;1017.9575251886215;;;6.961328125;89.54834790403429
61740;BME280;47645;45.288;12.038;2023-03-03T23:30:12;1018.0003788893307;;;6.7677734375;90.49427089282999
61740;BME280;47645;45.288;12.038;2023-03-03T23:40:11;1018.0129968270167;;;6.7576171875;90.13058102178776
61740;BME280;47645;45.288;12.038;2023-03-03T23:50:11;1017.9965770149846;;;6.5841796875;90.81698096439489
